createdAt,value
2017-11-19T00:00:20.166Z,0
2017-11-19T00:01:20.401Z,0
2017-11-19T00:02:19.874Z,0
2017-11-19T00:03:20.391Z,0
2017-11-19T00:04:20.123Z,0
2017-11-19T00:05:20.460Z,0
2017-11-19T00:06:19.835Z,0
2017-11-19T00:07:20.344Z,0
2017-11-19T00:08:20.333Z,0
2017-11-19T00:09:20.063Z,0
2017-11-19T00:10:20.065Z,0
2017-11-19T00:11:20.301Z,0
2017-11-19T00:12:20.146Z,0
2017-11-19T00:13:19.760Z,0
2017-11-19T00:14:20.285Z,0
2017-11-19T00:15:19.743Z,0
2017-11-19T00:16:19.739Z,0
2017-11-19T00:17:19.983Z,0
2017-11-19T00:18:19.740Z,0
2017-11-19T00:19:20.247Z,0
2017-11-19T00:20:20.214Z,0
2017-11-19T00:21:19.952Z,0
2017-11-19T00:22:19.676Z,0
2017-11-19T00:23:19.929Z,0
2017-11-19T00:24:20.189Z,0
2017-11-19T00:25:20.006Z,0
2017-11-19T00:26:20.249Z,0
2017-11-19T00:27:20.186Z,0
2017-11-19T00:28:20.149Z,0
2017-11-19T00:29:19.869Z,0
2017-11-19T00:30:19.599Z,0
2017-11-19T00:31:20.095Z,0
2017-11-19T00:32:20.104Z,0
2017-11-19T00:33:20.089Z,0
2017-11-19T00:34:19.817Z,0
2017-11-19T00:35:19.999Z,0
2017-11-19T00:36:19.799Z,0
2017-11-19T00:37:20.064Z,0
2017-11-19T00:38:19.768Z,0
2017-11-19T00:39:19.769Z,0
2017-11-19T00:40:19.757Z,0
2017-11-19T00:41:19.741Z,0
2017-11-19T00:42:19.992Z,0
2017-11-19T00:43:19.984Z,0
2017-11-19T00:44:19.717Z,0
2017-11-19T00:45:20.068Z,0
2017-11-19T00:46:19.696Z,0
2017-11-19T00:47:19.785Z,0
2017-11-19T00:48:19.945Z,0
2017-11-19T00:49:19.925Z,0
2017-11-19T00:50:19.920Z,0
2017-11-19T00:51:19.919Z,0
2017-11-19T00:52:19.991Z,0
2017-11-19T00:53:19.366Z,0
2017-11-19T00:54:19.614Z,0
2017-11-19T00:55:19.617Z,0
2017-11-19T00:56:19.592Z,0
2017-11-19T00:57:19.587Z,0
2017-11-19T00:58:19.778Z,0
2017-11-19T00:59:19.927Z,0
2017-11-19T01:00:19.823Z,0
2017-11-19T01:01:19.543Z,0
2017-11-19T01:02:19.018Z,0
2017-11-19T01:03:19.523Z,0
2017-11-19T01:04:19.510Z,0
2017-11-19T01:05:19.778Z,0
2017-11-19T01:06:19.494Z,0
2017-11-19T01:07:19.595Z,0
2017-11-19T01:08:19.732Z,0
2017-11-19T01:09:19.573Z,0
2017-11-19T01:10:19.197Z,0
2017-11-19T01:11:19.195Z,0
2017-11-19T01:12:19.437Z,0
2017-11-19T01:13:19.793Z,0
2017-11-19T01:14:19.414Z,0
2017-11-19T01:15:19.669Z,0
2017-11-19T01:16:19.135Z,0
2017-11-19T01:17:19.640Z,0
2017-11-19T01:18:19.654Z,0
2017-11-19T01:19:19.368Z,0
2017-11-19T01:20:19.353Z,0
2017-11-19T01:21:19.342Z,0
2017-11-19T01:22:19.081Z,0
2017-11-19T01:23:19.066Z,0
2017-11-19T01:24:19.409Z,0
2017-11-19T01:25:19.665Z,0
2017-11-19T01:26:19.293Z,0
2017-11-19T01:27:19.537Z,0
2017-11-19T01:28:19.539Z,0
2017-11-19T01:29:19.260Z,0
2017-11-19T01:30:19.347Z,0
2017-11-19T01:31:19.505Z,0
2017-11-19T01:32:19.590Z,0
2017-11-19T01:33:19.063Z,0
2017-11-19T01:34:19.472Z,0
2017-11-19T01:35:19.472Z,0
2017-11-19T01:36:19.559Z,0
2017-11-19T01:37:18.924Z,0
2017-11-19T01:38:19.434Z,0
2017-11-19T01:39:19.421Z,0
2017-11-19T01:40:19.170Z,0
2017-11-19T01:41:19.140Z,0
2017-11-19T01:42:19.397Z,0
2017-11-19T01:43:18.866Z,0
2017-11-19T01:44:19.112Z,0
2017-11-19T01:45:19.098Z,0
2017-11-19T01:46:19.194Z,0
2017-11-19T01:47:19.354Z,0
2017-11-19T01:48:19.071Z,0
2017-11-19T01:49:19.061Z,0
2017-11-19T01:50:19.322Z,0
2017-11-19T01:51:19.043Z,0
2017-11-19T01:52:19.036Z,0
2017-11-19T01:53:19.411Z,0
2017-11-19T01:54:18.756Z,0
2017-11-19T01:55:19.005Z,0
2017-11-19T01:56:18.732Z,0
2017-11-19T01:57:18.984Z,0
2017-11-19T01:58:18.972Z,0
2017-11-19T01:59:19.076Z,0
2017-11-19T02:00:18.955Z,0
2017-11-19T02:01:19.207Z,0
2017-11-19T02:02:18.932Z,0
2017-11-19T02:03:18.933Z,0
2017-11-19T02:04:18.916Z,0
2017-11-19T02:05:19.283Z,0
2017-11-19T02:06:18.634Z,0
2017-11-19T02:07:18.632Z,0
2017-11-19T02:08:18.878Z,0
2017-11-19T02:09:18.877Z,0
2017-11-19T02:10:18.861Z,0
2017-11-19T02:11:18.595Z,0
2017-11-19T02:12:18.839Z,0
2017-11-19T02:13:18.925Z,0
2017-11-19T02:14:18.559Z,0
2017-11-19T02:15:18.801Z,0
2017-11-19T02:16:18.794Z,0
2017-11-19T02:17:19.047Z,0
2017-11-19T02:18:18.782Z,0
2017-11-19T02:19:19.024Z,0
2017-11-19T02:20:18.767Z,0
2017-11-19T02:21:18.491Z,0
2017-11-19T02:22:19.091Z,0
2017-11-19T02:23:18.722Z,0
2017-11-19T02:24:18.715Z,0
2017-11-19T02:25:18.710Z,0
2017-11-19T02:26:18.951Z,0
2017-11-19T02:27:18.424Z,0
2017-11-19T02:28:18.679Z,0
2017-11-19T02:29:18.662Z,0
2017-11-19T02:30:18.924Z,0
2017-11-19T02:31:18.920Z,0
2017-11-19T02:32:18.376Z,0
2017-11-19T02:33:18.888Z,0
2017-11-19T02:34:18.886Z,0
2017-11-19T02:35:18.871Z,0
2017-11-19T02:36:18.598Z,0
2017-11-19T02:37:18.335Z,0
2017-11-19T02:38:18.844Z,0
2017-11-19T02:39:18.305Z,0
2017-11-19T02:40:18.825Z,0
2017-11-19T02:41:18.805Z,0
2017-11-19T02:42:18.806Z,0
2017-11-19T02:43:18.790Z,0
2017-11-19T02:44:18.266Z,0
2017-11-19T02:45:18.773Z,0
2017-11-19T02:46:18.497Z,0
2017-11-19T02:47:18.849Z,0
2017-11-19T02:48:18.487Z,0
2017-11-19T02:49:18.478Z,0
2017-11-19T02:50:18.205Z,0
2017-11-19T02:51:18.555Z,0
2017-11-19T02:52:18.719Z,0
2017-11-19T02:53:18.439Z,0
2017-11-19T02:54:18.685Z,0
2017-11-19T02:55:18.408Z,0
2017-11-19T02:56:18.240Z,0
2017-11-19T02:57:18.141Z,0
2017-11-19T02:58:18.635Z,0
2017-11-19T02:59:18.628Z,0
2017-11-19T03:00:18.618Z,0
2017-11-19T03:01:18.353Z,0
2017-11-19T03:02:18.602Z,0
2017-11-19T03:03:18.329Z,0
2017-11-19T03:04:18.323Z,0
2017-11-19T03:05:18.407Z,0
2017-11-19T03:06:18.581Z,0
2017-11-19T03:07:18.384Z,0
2017-11-19T03:08:18.306Z,0
2017-11-19T03:09:18.270Z,0
2017-11-19T03:10:18.515Z,0
2017-11-19T03:11:18.250Z,0
2017-11-19T03:12:18.343Z,0
2017-11-19T03:13:18.234Z,0
2017-11-19T03:14:18.237Z,0
2017-11-19T03:15:18.499Z,0
2017-11-19T03:16:17.940Z,0
2017-11-19T03:17:18.187Z,0
2017-11-19T03:18:18.175Z,0
2017-11-19T03:19:18.010Z,0
2017-11-19T03:20:18.415Z,0
2017-11-19T03:21:18.152Z,0
2017-11-19T03:22:17.616Z,0
2017-11-19T03:23:18.131Z,0
2017-11-19T03:24:18.118Z,0
2017-11-19T03:25:18.100Z,0
2017-11-19T03:26:18.114Z,0
2017-11-19T03:27:18.092Z,0
2017-11-19T03:28:17.813Z,0
2017-11-19T03:29:18.066Z,0
2017-11-19T03:30:18.336Z,0
2017-11-19T03:31:18.052Z,0
2017-11-19T03:32:18.294Z,0
2017-11-19T03:33:18.024Z,0
2017-11-19T03:34:18.020Z,0
2017-11-19T03:35:17.845Z,0
2017-11-19T03:36:18.004Z,0
2017-11-19T03:37:17.988Z,0
2017-11-19T03:38:18.073Z,0
2017-11-19T03:39:17.973Z,0
2017-11-19T03:40:18.103Z,0
2017-11-19T03:41:18.207Z,0
2017-11-19T03:42:17.939Z,0
2017-11-19T03:43:18.231Z,0
2017-11-19T03:44:17.918Z,0
2017-11-19T03:45:17.943Z,0
2017-11-19T03:46:17.914Z,0
2017-11-19T03:47:17.895Z,0
2017-11-19T03:48:18.137Z,0
2017-11-19T03:49:18.133Z,0
2017-11-19T03:50:17.853Z,0
2017-11-19T03:51:18.110Z,0
2017-11-19T03:52:17.834Z,0
2017-11-19T03:53:18.091Z,0
2017-11-19T03:54:18.078Z,0
2017-11-19T03:55:18.168Z,0
2017-11-19T03:56:17.799Z,0
2017-11-19T03:57:17.894Z,0
2017-11-19T03:58:18.052Z,0
2017-11-19T03:59:18.030Z,0
2017-11-19T04:00:18.023Z,0
2017-11-19T04:01:17.528Z,0
2017-11-19T04:02:17.738Z,0
2017-11-19T04:03:17.467Z,0
2017-11-19T04:04:17.719Z,0
2017-11-19T04:05:17.965Z,0
2017-11-19T04:06:17.958Z,0
2017-11-19T04:07:17.686Z,0
2017-11-19T04:08:18.037Z,0
2017-11-19T04:09:17.928Z,0
2017-11-19T04:10:17.663Z,0
2017-11-19T04:11:17.649Z,0
2017-11-19T04:12:17.378Z,0
2017-11-19T04:13:17.883Z,0
2017-11-19T04:14:17.379Z,0
2017-11-19T04:15:17.346Z,0
2017-11-19T04:16:17.598Z,0
2017-11-19T04:17:17.591Z,0
2017-11-19T04:18:17.321Z,0
2017-11-19T04:19:17.920Z,0
2017-11-19T04:20:17.554Z,0
2017-11-19T04:21:17.286Z,0
2017-11-19T04:22:17.535Z,0
2017-11-19T04:23:17.526Z,0
2017-11-19T04:24:17.521Z,0
2017-11-19T04:25:17.508Z,0
2017-11-19T04:26:17.757Z,0
2017-11-19T04:27:17.743Z,0
2017-11-19T04:28:17.471Z,0
2017-11-19T04:29:17.790Z,0
2017-11-19T04:30:17.453Z,0
2017-11-19T04:31:17.827Z,0
2017-11-19T04:32:17.451Z,0
2017-11-19T04:33:17.165Z,0
2017-11-19T04:34:17.684Z,0
2017-11-19T04:35:17.662Z,0
2017-11-19T04:36:17.496Z,0
2017-11-19T04:37:17.749Z,0
2017-11-19T04:38:17.392Z,0
2017-11-19T04:39:17.369Z,0
2017-11-19T04:40:17.629Z,0
2017-11-19T04:41:17.372Z,0
2017-11-19T04:42:17.074Z,0
2017-11-19T04:43:17.584Z,0
2017-11-19T04:44:17.055Z,0
2017-11-19T04:45:17.304Z,0
2017-11-19T04:46:17.036Z,0
2017-11-19T04:47:17.384Z,0
2017-11-19T04:48:17.275Z,0
2017-11-19T04:49:17.536Z,0
2017-11-19T04:50:17.250Z,0
2017-11-19T04:51:17.513Z,0
2017-11-19T04:52:17.491Z,0
2017-11-19T04:53:17.064Z,0
2017-11-19T04:54:17.575Z,0
2017-11-19T04:55:17.205Z,0
2017-11-19T04:56:17.206Z,0
2017-11-19T04:57:17.186Z,0
2017-11-19T04:58:17.445Z,0
2017-11-19T04:59:16.901Z,0
2017-11-19T05:00:17.413Z,0
2017-11-19T05:01:16.888Z,0
2017-11-19T05:02:17.129Z,0
2017-11-19T05:03:17.485Z,0
2017-11-19T05:04:17.217Z,0
2017-11-19T05:05:17.115Z,0
2017-11-19T05:06:16.934Z,0
2017-11-19T05:07:17.340Z,0
2017-11-19T05:08:17.070Z,0
2017-11-19T05:09:16.813Z,0
2017-11-19T05:10:17.045Z,0
2017-11-19T05:11:17.042Z,0
2017-11-19T05:12:17.301Z,0
2017-11-19T05:13:17.131Z,0
2017-11-19T05:14:17.007Z,0
2017-11-19T05:15:17.001Z,0
2017-11-19T05:16:16.999Z,0
2017-11-19T05:17:17.250Z,0
2017-11-19T05:18:17.085Z,0
2017-11-19T05:19:16.968Z,0
2017-11-19T05:20:16.793Z,0
2017-11-19T05:21:17.204Z,0
2017-11-19T05:22:16.929Z,0
2017-11-19T05:23:17.191Z,0
2017-11-19T05:24:17.008Z,0
2017-11-19T05:25:17.006Z,0
2017-11-19T05:26:17.146Z,0
2017-11-19T05:27:16.884Z,0
2017-11-19T05:28:17.148Z,0
2017-11-19T05:29:17.122Z,0
2017-11-19T05:30:16.594Z,0
2017-11-19T05:31:16.851Z,0
2017-11-19T05:32:17.192Z,0
2017-11-19T05:33:17.082Z,0
2017-11-19T05:34:17.070Z,0
2017-11-19T05:35:16.797Z,0
2017-11-19T05:36:16.789Z,0
2017-11-19T05:37:16.779Z,0
2017-11-19T05:38:17.033Z,0
2017-11-19T05:39:16.765Z,0
2017-11-19T05:40:17.019Z,0
2017-11-19T05:41:16.482Z,0
2017-11-19T05:42:16.834Z,0
2017-11-19T05:43:16.983Z,0
2017-11-19T05:44:16.745Z,0
2017-11-19T05:45:16.956Z,0
2017-11-19T05:46:16.697Z,0
2017-11-19T05:47:16.679Z,0
2017-11-19T05:48:16.668Z,0
2017-11-19T05:49:16.916Z,0
2017-11-19T05:50:16.648Z,0
2017-11-19T05:51:16.642Z,0
2017-11-19T05:52:16.377Z,0
2017-11-19T05:53:16.619Z,0
2017-11-19T05:54:16.354Z,0
2017-11-19T05:55:16.598Z,0
2017-11-19T05:56:16.846Z,0
2017-11-19T05:57:16.940Z,0
2017-11-19T05:58:16.577Z,0
2017-11-19T05:59:16.305Z,0
2017-11-19T06:00:16.805Z,0
2017-11-19T06:01:16.540Z,0
2017-11-19T06:02:16.789Z,0
2017-11-19T06:03:16.261Z,0
2017-11-19T06:04:16.766Z,0
2017-11-19T06:05:16.758Z,0
2017-11-19T06:06:16.584Z,0
2017-11-19T06:07:16.744Z,0
2017-11-19T06:08:16.747Z,0
2017-11-19T06:09:16.714Z,0
2017-11-19T06:10:16.189Z,0
2017-11-19T06:11:16.443Z,0
2017-11-19T06:12:16.431Z,0
2017-11-19T06:13:16.159Z,0
2017-11-19T06:14:16.416Z,0
2017-11-19T06:15:16.665Z,0
2017-11-19T06:16:16.483Z,0
2017-11-19T06:17:16.374Z,0
2017-11-19T06:18:16.363Z,4
2017-11-19T06:19:16.195Z,4
2017-11-19T06:20:16.080Z,4
2017-11-19T06:21:16.372Z,4
2017-11-19T06:22:16.581Z,4
2017-11-19T06:23:16.576Z,0
2017-11-19T06:24:16.564Z,4
2017-11-19T06:25:16.293Z,4
2017-11-19T06:26:16.545Z,4
2017-11-19T06:27:16.533Z,4
2017-11-19T06:28:16.528Z,8
2017-11-19T06:29:16.624Z,4
2017-11-19T06:30:16.502Z,8
2017-11-19T06:31:16.591Z,8
2017-11-19T06:32:15.965Z,8
2017-11-19T06:33:16.470Z,12
2017-11-19T06:34:16.204Z,12
2017-11-19T06:35:16.199Z,12
2017-11-19T06:36:16.189Z,16
2017-11-19T06:37:16.423Z,16
2017-11-19T06:38:16.157Z,16
2017-11-19T06:39:16.411Z,20
2017-11-19T06:40:16.146Z,20
2017-11-19T06:41:15.871Z,20
2017-11-19T06:42:16.477Z,20
2017-11-19T06:43:16.106Z,20
2017-11-19T06:44:16.367Z,24
2017-11-19T06:45:16.081Z,20
2017-11-19T06:46:15.818Z,20
2017-11-19T06:47:15.809Z,20
2017-11-19T06:48:16.060Z,20
2017-11-19T06:49:16.304Z,20
2017-11-19T06:50:16.405Z,20
2017-11-19T06:51:16.025Z,20
2017-11-19T06:52:16.015Z,20
2017-11-19T06:53:16.010Z,24
2017-11-19T06:54:15.991Z,24
2017-11-19T06:55:15.985Z,28
2017-11-19T06:56:16.234Z,32
2017-11-19T06:57:15.970Z,32
2017-11-19T06:58:16.216Z,28
2017-11-19T06:59:15.941Z,28
2017-11-19T07:00:15.937Z,32
2017-11-19T07:01:16.189Z,36
2017-11-19T07:02:16.178Z,36
2017-11-19T07:03:16.180Z,36
2017-11-19T07:04:15.634Z,40
2017-11-19T07:05:15.886Z,40
2017-11-19T07:06:16.134Z,44
2017-11-19T07:07:15.857Z,48
2017-11-19T07:08:15.591Z,48
2017-11-19T07:09:15.322Z,36
2017-11-19T07:10:16.089Z,40
2017-11-19T07:11:16.099Z,40
2017-11-19T07:12:15.811Z,40
2017-11-19T07:13:15.799Z,44
2017-11-19T07:14:15.825Z,48
2017-11-19T07:15:16.035Z,48
2017-11-19T07:16:15.514Z,64
2017-11-19T07:17:15.753Z,76
2017-11-19T07:18:15.853Z,84
2017-11-19T07:19:16.004Z,80
2017-11-19T07:20:15.523Z,88
2017-11-19T07:21:15.975Z,84
2017-11-19T07:22:15.707Z,80
2017-11-19T07:23:15.436Z,96
2017-11-19T07:24:15.955Z,100
2017-11-19T07:25:16.030Z,108
2017-11-19T07:26:15.666Z,124
2017-11-19T07:27:15.675Z,128
2017-11-19T07:28:15.906Z,120
2017-11-19T07:29:15.903Z,120
2017-11-19T07:30:15.889Z,124
2017-11-19T07:31:15.357Z,136
2017-11-19T07:32:15.339Z,164
2017-11-19T07:33:15.868Z,184
2017-11-19T07:34:15.579Z,176
2017-11-19T07:35:15.411Z,168
2017-11-19T07:36:15.915Z,144
2017-11-19T07:37:15.815Z,148
2017-11-19T07:38:15.541Z,164
2017-11-19T07:39:15.529Z,216
2017-11-19T07:40:15.358Z,248
2017-11-19T07:41:15.513Z,228
2017-11-19T07:42:15.238Z,204
2017-11-19T07:43:15.743Z,208
2017-11-19T07:44:15.477Z,208
2017-11-19T07:45:15.211Z,228
2017-11-19T07:46:15.712Z,272
2017-11-19T07:47:15.728Z,296
2017-11-19T07:48:15.174Z,292
2017-11-19T07:49:15.687Z,240
2017-11-19T07:50:15.421Z,232
2017-11-19T07:51:15.405Z,204
2017-11-19T07:52:15.653Z,216
2017-11-19T07:53:15.388Z,220
2017-11-19T07:54:15.633Z,240
2017-11-19T07:55:15.631Z,256
2017-11-19T07:56:15.611Z,284
2017-11-19T07:57:15.083Z,288
2017-11-19T07:58:15.070Z,308
2017-11-19T07:59:15.063Z,364
2017-11-19T08:00:15.306Z,436
2017-11-19T08:01:15.089Z,448
2017-11-19T08:02:15.401Z,452
2017-11-19T08:03:15.288Z,436
2017-11-19T08:04:15.268Z,388
2017-11-19T08:05:14.739Z,368
2017-11-19T08:06:15.244Z,452
2017-11-19T08:07:15.596Z,480
2017-11-19T08:08:15.600Z,488
2017-11-19T08:09:15.220Z,460
2017-11-19T08:10:15.219Z,436
2017-11-19T08:11:14.936Z,416
2017-11-19T08:12:15.284Z,324
2017-11-19T08:13:15.175Z,332
2017-11-19T08:14:15.424Z,344
2017-11-19T08:15:15.430Z,360
2017-11-19T08:16:15.251Z,364
2017-11-19T08:17:15.393Z,304
2017-11-19T08:18:15.385Z,296
2017-11-19T08:19:14.855Z,288
2017-11-19T08:20:15.473Z,284
2017-11-19T08:21:15.202Z,260
2017-11-19T08:22:15.346Z,280
2017-11-19T08:23:15.069Z,260
2017-11-19T08:24:15.065Z,284
2017-11-19T08:25:15.052Z,284
2017-11-19T08:26:15.145Z,264
2017-11-19T08:27:15.030Z,264
2017-11-19T08:28:15.292Z,256
2017-11-19T08:29:15.016Z,284
2017-11-19T08:30:15.005Z,300
2017-11-19T08:31:15.341Z,300
2017-11-19T08:32:14.983Z,312
2017-11-19T08:33:14.707Z,296
2017-11-19T08:34:14.960Z,296
2017-11-19T08:35:14.954Z,292
2017-11-19T08:36:14.426Z,300
2017-11-19T08:37:14.923Z,280
2017-11-19T08:38:15.014Z,268
2017-11-19T08:39:15.173Z,264
2017-11-19T08:40:15.007Z,268
2017-11-19T08:41:15.177Z,284
2017-11-19T08:42:15.134Z,336
2017-11-19T08:43:14.883Z,404
2017-11-19T08:44:14.626Z,480
2017-11-19T08:45:15.103Z,512
2017-11-19T08:46:14.830Z,512
2017-11-19T08:47:14.820Z,484
2017-11-19T08:48:14.812Z,456
2017-11-19T08:49:15.070Z,472
2017-11-19T08:50:15.256Z,448
2017-11-19T08:51:14.779Z,464
2017-11-19T08:52:14.770Z,400
2017-11-19T08:53:14.501Z,360
2017-11-19T08:54:14.747Z,356
2017-11-19T08:55:15.097Z,344
2017-11-19T08:56:14.729Z,300
2017-11-19T08:57:14.983Z,276
2017-11-19T08:58:14.703Z,292
2017-11-19T08:59:14.693Z,328
2017-11-19T09:00:14.787Z,368
2017-11-19T09:01:14.931Z,384
2017-11-19T09:02:14.661Z,368
2017-11-19T09:03:14.914Z,412
2017-11-19T09:04:14.897Z,372
2017-11-19T09:05:14.892Z,300
2017-11-19T09:06:14.742Z,316
2017-11-19T09:07:14.872Z,320
2017-11-19T09:08:14.605Z,336
2017-11-19T09:09:14.330Z,356
2017-11-19T09:10:14.525Z,408
2017-11-19T09:11:14.826Z,460
2017-11-19T09:12:14.564Z,436
2017-11-19T09:13:14.808Z,480
2017-11-19T09:14:14.898Z,572
2017-11-19T09:15:14.525Z,528
2017-11-19T09:16:14.519Z,500
2017-11-19T09:17:13.992Z,520
2017-11-19T09:18:14.757Z,584
2017-11-19T09:19:14.488Z,756
2017-11-19T09:20:14.483Z,1028
2017-11-19T09:21:14.459Z,1016
2017-11-19T09:22:14.455Z,836
2017-11-19T09:23:14.838Z,692
2017-11-19T09:24:14.696Z,612
2017-11-19T09:25:14.524Z,664
2017-11-19T09:26:14.671Z,716
2017-11-19T09:27:14.140Z,756
2017-11-19T09:28:14.402Z,700
2017-11-19T09:29:14.657Z,640
2017-11-19T09:30:14.368Z,600
2017-11-19T09:31:14.360Z,516
2017-11-19T09:32:14.364Z,564
2017-11-19T09:33:14.708Z,588
2017-11-19T09:34:14.325Z,500
2017-11-19T09:35:14.062Z,576
2017-11-19T09:36:14.307Z,528
2017-11-19T09:37:14.298Z,600
2017-11-19T09:38:14.394Z,588
2017-11-19T09:39:14.283Z,600
2017-11-19T09:40:14.006Z,632
2017-11-19T09:41:14.521Z,636
2017-11-19T09:42:14.246Z,668
2017-11-19T09:43:14.597Z,644
2017-11-19T09:44:14.067Z,644
2017-11-19T09:45:14.313Z,592
2017-11-19T09:46:14.472Z,608
2017-11-19T09:47:14.191Z,592
2017-11-19T09:48:13.929Z,568
2017-11-19T09:49:14.174Z,596
2017-11-19T09:50:14.173Z,576
2017-11-19T09:51:14.158Z,628
2017-11-19T09:52:14.401Z,724
2017-11-19T09:53:14.401Z,776
2017-11-19T09:54:13.881Z,724
2017-11-19T09:55:14.367Z,668
2017-11-19T09:56:14.371Z,612
2017-11-19T09:57:14.347Z,648
2017-11-19T09:58:14.439Z,788
2017-11-19T09:59:14.070Z,812
2017-11-19T10:00:14.325Z,704
2017-11-19T10:01:14.053Z,788
2017-11-19T10:02:13.788Z,728
2017-11-19T10:03:14.126Z,668
2017-11-19T10:04:14.280Z,644
2017-11-19T10:05:14.269Z,532
2017-11-19T10:06:13.741Z,564
2017-11-19T10:07:13.730Z,656
2017-11-19T10:08:14.243Z,724
2017-11-19T10:09:13.977Z,644
2017-11-19T10:10:13.967Z,552
2017-11-19T10:11:14.205Z,504
2017-11-19T10:12:14.205Z,448
2017-11-19T10:13:14.198Z,392
2017-11-19T10:14:13.762Z,404
2017-11-19T10:15:13.647Z,388
2017-11-19T10:16:13.893Z,376
2017-11-19T10:17:14.153Z,340
2017-11-19T10:18:14.131Z,316
2017-11-19T10:19:13.865Z,384
2017-11-19T10:20:14.113Z,408
2017-11-19T10:21:14.099Z,404
2017-11-19T10:22:13.839Z,456
2017-11-19T10:23:14.120Z,444
2017-11-19T10:24:13.814Z,464
2017-11-19T10:25:14.068Z,468
2017-11-19T10:26:13.798Z,356
2017-11-19T10:27:13.530Z,356
2017-11-19T10:28:13.254Z,336
2017-11-19T10:29:13.502Z,292
2017-11-19T10:30:13.488Z,280
2017-11-19T10:31:13.480Z,284
2017-11-19T10:32:13.473Z,320
2017-11-19T10:33:14.177Z,400
2017-11-19T10:34:13.711Z,436
2017-11-19T10:35:13.702Z,428
2017-11-19T10:36:13.959Z,392
2017-11-19T10:37:13.686Z,428
2017-11-19T10:38:13.675Z,436
2017-11-19T10:39:13.940Z,512
2017-11-19T10:40:13.918Z,568
2017-11-19T10:41:13.649Z,600
2017-11-19T10:42:13.367Z,656
2017-11-19T10:43:13.878Z,884
2017-11-19T10:44:13.632Z,1084
2017-11-19T10:45:13.704Z,1160
2017-11-19T10:46:13.595Z,1292
2017-11-19T10:47:13.838Z,1192
2017-11-19T10:48:13.853Z,1216
2017-11-19T10:49:13.295Z,1124
2017-11-19T10:50:13.312Z,956
2017-11-19T10:51:13.793Z,824
2017-11-19T10:52:13.527Z,808
2017-11-19T10:53:13.773Z,876
2017-11-19T10:54:13.774Z,912
2017-11-19T10:55:13.755Z,1016
2017-11-19T10:56:13.484Z,1052
2017-11-19T10:57:13.213Z,1096
2017-11-19T10:58:13.719Z,1104
2017-11-19T10:59:13.450Z,1116
2017-11-19T11:00:12.924Z,1176
2017-11-19T11:01:13.174Z,1144
2017-11-19T11:02:13.424Z,1192
2017-11-19T11:03:13.419Z,1204
2017-11-19T11:04:13.152Z,1220
2017-11-19T11:05:13.389Z,1236
2017-11-19T11:06:13.398Z,1264
2017-11-19T11:07:13.377Z,1244
2017-11-19T11:08:13.360Z,1200
2017-11-19T11:09:13.807Z,1188
2017-11-19T11:10:13.598Z,1212
2017-11-19T11:11:13.072Z,1272
2017-11-19T11:12:13.061Z,960
2017-11-19T11:13:13.570Z,924
2017-11-19T11:14:13.310Z,872
2017-11-19T11:15:13.291Z,916
2017-11-19T11:16:13.289Z,980
2017-11-19T11:17:13.522Z,976
2017-11-19T11:18:13.532Z,920
2017-11-19T11:19:13.309Z,936
2017-11-19T11:20:12.980Z,980
2017-11-19T11:21:13.484Z,924
2017-11-19T11:22:13.233Z,860
2017-11-19T11:23:13.223Z,944
2017-11-19T11:24:13.491Z,904
2017-11-19T11:25:13.291Z,952
2017-11-19T11:26:13.183Z,820
2017-11-19T11:27:13.169Z,796
2017-11-19T11:28:13.415Z,728
2017-11-19T11:29:13.244Z,812
2017-11-19T11:30:13.143Z,736
2017-11-19T11:31:13.387Z,640
2017-11-19T11:32:13.118Z,656
2017-11-19T11:33:12.945Z,636
2017-11-19T11:34:13.107Z,712
2017-11-19T11:35:13.029Z,684
2017-11-19T11:36:13.075Z,756
2017-11-19T11:37:13.063Z,728
2017-11-19T11:38:12.793Z,740
2017-11-19T11:39:13.049Z,728
2017-11-19T11:40:12.523Z,744
2017-11-19T11:41:13.020Z,928
2017-11-19T11:42:13.023Z,732
2017-11-19T11:43:12.746Z,684
2017-11-19T11:44:13.264Z,744
2017-11-19T11:45:12.731Z,776
2017-11-19T11:46:13.079Z,816
2017-11-19T11:47:12.966Z,868
2017-11-19T11:48:12.961Z,864
2017-11-19T11:49:12.695Z,872
2017-11-19T11:50:13.195Z,788
2017-11-19T11:51:13.181Z,812
2017-11-19T11:52:13.169Z,816
2017-11-19T11:53:13.158Z,848
2017-11-19T11:54:13.166Z,796
2017-11-19T11:55:12.889Z,764
2017-11-19T11:56:12.972Z,676
2017-11-19T11:57:13.132Z,708
2017-11-19T11:58:12.589Z,700
2017-11-19T11:59:12.838Z,600
2017-11-19T12:00:12.571Z,524
2017-11-19T12:01:13.089Z,532
2017-11-19T12:02:12.547Z,736
2017-11-19T12:03:12.807Z,700
2017-11-19T12:04:12.528Z,740
2017-11-19T12:05:12.522Z,616
2017-11-19T12:06:12.776Z,596
2017-11-19T12:07:12.764Z,600
2017-11-19T12:08:12.745Z,736
2017-11-19T12:09:13.025Z,740
2017-11-19T12:10:12.309Z,736
2017-11-19T12:11:12.715Z,556
2017-11-19T12:12:12.972Z,632
2017-11-19T12:13:12.954Z,576
2017-11-19T12:14:12.977Z,604
2017-11-19T12:15:12.677Z,704
2017-11-19T12:16:12.668Z,772
2017-11-19T12:17:13.010Z,760
2017-11-19T12:18:12.900Z,632
2017-11-19T12:19:12.903Z,684
2017-11-19T12:20:12.893Z,716
2017-11-19T12:21:12.880Z,632
2017-11-19T12:22:12.965Z,596
2017-11-19T12:23:12.604Z,700
2017-11-19T12:24:12.596Z,812
2017-11-19T12:25:12.575Z,808
2017-11-19T12:26:12.822Z,880
2017-11-19T12:27:12.558Z,928
2017-11-19T12:28:12.311Z,968
2017-11-19T12:29:12.796Z,1052
2017-11-19T12:30:12.801Z,1000
2017-11-19T12:31:12.512Z,1236
2017-11-19T12:32:12.247Z,1296
2017-11-19T12:33:12.862Z,1344
2017-11-19T12:34:12.486Z,1408
2017-11-19T12:35:12.739Z,1452
2017-11-19T12:36:12.764Z,1476
2017-11-19T12:37:12.716Z,1488
2017-11-19T12:38:12.282Z,1504
2017-11-19T12:39:12.699Z,1528
2017-11-19T12:40:12.429Z,1560
2017-11-19T12:41:12.157Z,1552
2017-11-19T12:42:12.661Z,1580
2017-11-19T12:43:12.412Z,1464
2017-11-19T12:44:12.385Z,1344
2017-11-19T12:45:12.743Z,1264
2017-11-19T12:46:12.620Z,1252
2017-11-19T12:47:12.352Z,1204
2017-11-19T12:48:12.484Z,1216
2017-11-19T12:49:12.175Z,1224
2017-11-19T12:50:12.324Z,1240
2017-11-19T12:51:12.579Z,1208
2017-11-19T12:52:12.570Z,1224
2017-11-19T12:53:12.287Z,1236
2017-11-19T12:54:12.029Z,1232
2017-11-19T12:55:12.536Z,1208
2017-11-19T12:56:12.311Z,1172
2017-11-19T12:57:12.251Z,1144
2017-11-19T12:58:12.345Z,1140
2017-11-19T12:59:12.234Z,1072
2017-11-19T13:00:11.980Z,984
2017-11-19T13:01:12.574Z,912
2017-11-19T13:02:12.200Z,848
2017-11-19T13:03:12.191Z,784
2017-11-19T13:04:12.439Z,804
2017-11-19T13:05:12.430Z,868
2017-11-19T13:06:11.906Z,996
2017-11-19T13:07:11.994Z,1084
2017-11-19T13:08:12.411Z,1068
2017-11-19T13:09:12.124Z,1072
2017-11-19T13:10:12.222Z,1088
2017-11-19T13:11:12.372Z,1076
2017-11-19T13:12:11.845Z,1044
2017-11-19T13:13:12.110Z,1108
2017-11-19T13:14:11.823Z,1152
2017-11-19T13:15:12.340Z,1184
2017-11-19T13:16:12.157Z,1124
2017-11-19T13:17:12.305Z,1120
2017-11-19T13:18:12.041Z,1092
2017-11-19T13:19:12.029Z,1260
2017-11-19T13:20:12.126Z,1072
2017-11-19T13:21:12.012Z,1012
2017-11-19T13:22:12.001Z,964
2017-11-19T13:23:11.746Z,948
2017-11-19T13:24:11.982Z,976
2017-11-19T13:25:12.230Z,1008
2017-11-19T13:26:12.219Z,1056
2017-11-19T13:27:11.704Z,1096
2017-11-19T13:28:11.679Z,1272
2017-11-19T13:29:11.929Z,1056
2017-11-19T13:30:11.768Z,1036
2017-11-19T13:31:11.907Z,1008
2017-11-19T13:32:11.640Z,972
2017-11-19T13:33:11.896Z,1036
2017-11-19T13:34:11.911Z,1056
2017-11-19T13:35:12.139Z,1012
2017-11-19T13:36:11.866Z,972
2017-11-19T13:37:12.107Z,1060
2017-11-19T13:38:11.838Z,1016
2017-11-19T13:39:11.834Z,1044
2017-11-19T13:40:12.082Z,1036
2017-11-19T13:41:12.180Z,980
2017-11-19T13:42:11.661Z,1012
2017-11-19T13:43:12.050Z,1000
2017-11-19T13:44:11.788Z,972
2017-11-19T13:45:11.353Z,1084
2017-11-19T13:46:12.050Z,956
2017-11-19T13:47:11.500Z,916
2017-11-19T13:48:11.738Z,908
2017-11-19T13:49:11.993Z,824
2017-11-19T13:50:11.728Z,836
2017-11-19T13:51:11.712Z,908
2017-11-19T13:52:11.968Z,904
2017-11-19T13:53:11.702Z,944
2017-11-19T13:54:12.046Z,920
2017-11-19T13:55:11.679Z,908
2017-11-19T13:56:11.927Z,868
2017-11-19T13:57:11.919Z,872
2017-11-19T13:58:11.643Z,884
2017-11-19T13:59:11.632Z,888
2017-11-19T14:00:11.636Z,884
2017-11-19T14:01:11.879Z,900
2017-11-19T14:02:11.601Z,1092
2017-11-19T14:03:11.690Z,940
2017-11-19T14:04:11.582Z,1056
2017-11-19T14:05:11.940Z,1084
2017-11-19T14:06:11.566Z,1200
2017-11-19T14:07:11.655Z,1212
2017-11-19T14:08:11.281Z,1048
2017-11-19T14:09:11.543Z,936
2017-11-19T14:10:11.525Z,1236
2017-11-19T14:11:11.547Z,1252